sensor_id;sensor_type;location;lat;lon;timestamp;P1;durP1;ratioP1;P2;durP2;ratioP2
4766;SDS011;2397;53.576;9.746;2022-12-29T00:01:38;5.43;;;5.03;;
4766;SDS011;2397;53.576;9.746;2022-12-29T00:04:04;5.30;;;4.80;;
4766;SDS011;2397;53.576;9.746;2022-12-29T00:06:39;5.07;;;4.40;;
4766;SDS011;2397;53.576;9.746;2022-12-29T00:09:06;6.13;;;4.40;;
4766;SDS011;2397;53.576;9.746;2022-12-29T00:11:33;5.43;;;5.03;;
4766;SDS011;2397;53.576;9.746;2022-12-29T00:13:59;4.90;;;4.50;;
4766;SDS011;2397;53.576;9.746;2022-12-29T00:16:51;5.80;;;5.17;;
4766;SDS011;2397;53.576;9.746;2022-12-29T00:19:17;5.10;;;4.70;;
4766;SDS011;2397;53.576;9.746;2022-12-29T00:22:03;6.53;;;5.93;;
4766;SDS011;2397;53.576;9.746;2022-12-29T00:24:48;5.73;;;5.30;;
4766;SDS011;2397;53.576;9.746;2022-12-29T00:27:33;5.50;;;5.10;;
4766;SDS011;2397;53.576;9.746;2022-12-29T00:30:19;6.40;;;5.90;;
4766;SDS011;2397;53.576;9.746;2022-12-29T00:33:16;6.77;;;5.40;;
4766;SDS011;2397;53.576;9.746;2022-12-29T00:38:38;8.13;;;5.60;;
4766;SDS011;2397;53.576;9.746;2022-12-29T00:41:28;7.20;;;5.50;;
4766;SDS011;2397;53.576;9.746;2022-12-29T00:44:13;6.30;;;5.50;;
4766;SDS011;2397;53.576;9.746;2022-12-29T00:46:41;5.90;;;5.50;;
4766;SDS011;2397;53.576;9.746;2022-12-29T00:49:09;6.20;;;5.60;;
4766;SDS011;2397;53.576;9.746;2022-12-29T00:51:57;6.33;;;4.80;;
4766;SDS011;2397;53.576;9.746;2022-12-29T00:54:29;5.30;;;4.90;;
4766;SDS011;2397;53.576;9.746;2022-12-29T00:56:58;5.20;;;4.80;;
4766;SDS011;2397;53.576;9.746;2022-12-29T00:59:24;6.30;;;5.80;;
4766;SDS011;2397;53.576;9.746;2022-12-29T01:01:52;5.47;;;4.83;;
4766;SDS011;2397;53.576;9.746;2022-12-29T01:04:20;4.83;;;4.43;;
4766;SDS011;2397;53.576;9.746;2022-12-29T01:06:48;5.50;;;5.10;;
4766;SDS011;2397;53.576;9.746;2022-12-29T01:09:15;5.90;;;5.30;;
4766;SDS011;2397;53.576;9.746;2022-12-29T01:12:02;5.30;;;4.90;;
4766;SDS011;2397;53.576;9.746;2022-12-29T01:14:29;5.77;;;5.37;;
4766;SDS011;2397;53.576;9.746;2022-12-29T01:16:57;4.70;;;4.40;;
4766;SDS011;2397;53.576;9.746;2022-12-29T01:19:23;5.43;;;5.03;;
4766;SDS011;2397;53.576;9.746;2022-12-29T01:21:50;6.20;;;5.30;;
4766;SDS011;2397;53.576;9.746;2022-12-29T01:24:17;5.20;;;4.80;;
4766;SDS011;2397;53.576;9.746;2022-12-29T01:26:44;5.40;;;5.00;;
4766;SDS011;2397;53.576;9.746;2022-12-29T01:29:11;6.67;;;5.40;;
4766;SDS011;2397;53.576;9.746;2022-12-29T01:31:37;4.90;;;4.50;;
4766;SDS011;2397;53.576;9.746;2022-12-29T01:34:04;5.77;;;5.30;;
4766;SDS011;2397;53.576;9.746;2022-12-29T01:36:31;9.30;;;5.53;;
4766;SDS011;2397;53.576;9.746;2022-12-29T01:38:58;5.70;;;5.30;;
4766;SDS011;2397;53.576;9.746;2022-12-29T01:41:24;6.17;;;5.67;;
4766;SDS011;2397;53.576;9.746;2022-12-29T01:43:52;6.63;;;6.03;;
4766;SDS011;2397;53.576;9.746;2022-12-29T01:48:59;5.73;;;5.33;;
4766;SDS011;2397;53.576;9.746;2022-12-29T01:51:35;6.57;;;5.87;;
4766;SDS011;2397;53.576;9.746;2022-12-29T01:54:08;6.50;;;6.00;;
4766;SDS011;2397;53.576;9.746;2022-12-29T01:56:39;6.70;;;6.10;;
4766;SDS011;2397;53.576;9.746;2022-12-29T01:59:07;6.70;;;6.10;;
4766;SDS011;2397;53.576;9.746;2022-12-29T02:01:39;7.13;;;6.53;;
4766;SDS011;2397;53.576;9.746;2022-12-29T02:04:06;7.40;;;6.80;;
4766;SDS011;2397;53.576;9.746;2022-12-29T02:06:36;7.10;;;6.60;;
4766;SDS011;2397;53.576;9.746;2022-12-29T02:09:07;12.40;;;6.60;;
4766;SDS011;2397;53.576;9.746;2022-12-29T02:11:33;6.80;;;6.30;;
4766;SDS011;2397;53.576;9.746;2022-12-29T02:14:05;7.50;;;6.80;;
4766;SDS011;2397;53.576;9.746;2022-12-29T02:16:46;7.30;;;6.50;;
4766;SDS011;2397;53.576;9.746;2022-12-29T02:19:44;6.50;;;5.90;;
4766;SDS011;2397;53.576;9.746;2022-12-29T02:22:17;6.97;;;6.37;;
4766;SDS011;2397;53.576;9.746;2022-12-29T02:28:02;7.37;;;6.30;;
4766;SDS011;2397;53.576;9.746;2022-12-29T02:30:58;6.87;;;6.37;;
4766;SDS011;2397;53.576;9.746;2022-12-29T02:33:48;6.83;;;6.03;;
4766;SDS011;2397;53.576;9.746;2022-12-29T02:39:15;5.83;;;5.33;;
4766;SDS011;2397;53.576;9.746;2022-12-29T02:42:09;6.90;;;5.30;;
4766;SDS011;2397;53.576;9.746;2022-12-29T02:47:38;6.07;;;5.50;;
4766;SDS011;2397;53.576;9.746;2022-12-29T02:50:32;5.27;;;4.87;;
4766;SDS011;2397;53.576;9.746;2022-12-29T02:53:06;6.17;;;5.27;;
4766;SDS011;2397;53.576;9.746;2022-12-29T02:55:36;6.10;;;5.60;;
4766;SDS011;2397;53.576;9.746;2022-12-29T03:00:36;5.73;;;5.30;;
4766;SDS011;2397;53.576;9.746;2022-12-29T03:03:23;4.93;;;4.63;;
4766;SDS011;2397;53.576;9.746;2022-12-29T03:08:50;5.33;;;4.93;;
4766;SDS011;2397;53.576;9.746;2022-12-29T03:11:27;5.20;;;4.80;;
4766;SDS011;2397;53.576;9.746;2022-12-29T03:14:22;5.50;;;5.10;;
4766;SDS011;2397;53.576;9.746;2022-12-29T03:17:24;5.53;;;5.10;;
4766;SDS011;2397;53.576;9.746;2022-12-29T03:20:07;7.90;;;4.80;;
4766;SDS011;2397;53.576;9.746;2022-12-29T03:22:38;4.90;;;4.50;;
4766;SDS011;2397;53.576;9.746;2022-12-29T03:25:14;5.60;;;5.20;;
4766;SDS011;2397;53.576;9.746;2022-12-29T03:27:47;5.90;;;5.40;;
4766;SDS011;2397;53.576;9.746;2022-12-29T03:30:16;4.50;;;4.20;;
4766;SDS011;2397;53.576;9.746;2022-12-29T03:32:47;5.00;;;4.50;;
4766;SDS011;2397;53.576;9.746;2022-12-29T03:35:18;7.30;;;6.73;;
4766;SDS011;2397;53.576;9.746;2022-12-29T03:38:10;4.93;;;4.53;;
4766;SDS011;2397;53.576;9.746;2022-12-29T03:40:44;6.23;;;5.73;;
4766;SDS011;2397;53.576;9.746;2022-12-29T03:43:14;5.27;;;4.27;;
4766;SDS011;2397;53.576;9.746;2022-12-29T03:45:42;4.57;;;4.27;;
4766;SDS011;2397;53.576;9.746;2022-12-29T03:48:08;4.73;;;4.30;;
4766;SDS011;2397;53.576;9.746;2022-12-29T03:50:35;4.97;;;4.57;;
4766;SDS011;2397;53.576;9.746;2022-12-29T03:53:01;4.23;;;3.97;;
4766;SDS011;2397;53.576;9.746;2022-12-29T03:55:27;4.97;;;4.67;;
4766;SDS011;2397;53.576;9.746;2022-12-29T03:57:54;4.67;;;4.37;;
4766;SDS011;2397;53.576;9.746;2022-12-29T04:00:20;4.50;;;4.17;;
4766;SDS011;2397;53.576;9.746;2022-12-29T04:02:47;4.20;;;3.90;;
4766;SDS011;2397;53.576;9.746;2022-12-29T04:05:13;4.27;;;4.00;;
4766;SDS011;2397;53.576;9.746;2022-12-29T04:07:40;3.97;;;3.77;;
4766;SDS011;2397;53.576;9.746;2022-12-29T04:10:06;4.23;;;3.93;;
4766;SDS011;2397;53.576;9.746;2022-12-29T04:12:33;4.13;;;3.83;;
4766;SDS011;2397;53.576;9.746;2022-12-29T04:14:59;4.10;;;3.80;;
4766;SDS011;2397;53.576;9.746;2022-12-29T04:17:26;3.87;;;3.67;;
4766;SDS011;2397;53.576;9.746;2022-12-29T04:19:52;4.00;;;3.70;;
4766;SDS011;2397;53.576;9.746;2022-12-29T04:22:39;4.23;;;3.90;;
4766;SDS011;2397;53.576;9.746;2022-12-29T04:25:05;5.10;;;4.00;;
4766;SDS011;2397;53.576;9.746;2022-12-29T04:27:32;3.30;;;3.10;;
4766;SDS011;2397;53.576;9.746;2022-12-29T04:29:59;3.77;;;3.50;;
4766;SDS011;2397;53.576;9.746;2022-12-29T04:32:26;3.80;;;3.60;;
4766;SDS011;2397;53.576;9.746;2022-12-29T04:34:52;3.67;;;3.47;;
4766;SDS011;2397;53.576;9.746;2022-12-29T04:37:19;3.17;;;2.93;;
4766;SDS011;2397;53.576;9.746;2022-12-29T04:39:45;3.37;;;3.07;;
4766;SDS011;2397;53.576;9.746;2022-12-29T04:42:11;3.30;;;3.10;;
4766;SDS011;2397;53.576;9.746;2022-12-29T04:44:38;2.90;;;2.70;;
4766;SDS011;2397;53.576;9.746;2022-12-29T04:47:10;3.90;;;3.00;;
4766;SDS011;2397;53.576;9.746;2022-12-29T04:49:36;3.13;;;2.83;;
4766;SDS011;2397;53.576;9.746;2022-12-29T04:52:03;3.13;;;2.70;;
4766;SDS011;2397;53.576;9.746;2022-12-29T04:54:30;3.47;;;3.27;;
4766;SDS011;2397;53.576;9.746;2022-12-29T04:56:56;3.43;;;3.13;;
4766;SDS011;2397;53.576;9.746;2022-12-29T04:59:23;3.50;;;2.80;;
4766;SDS011;2397;53.576;9.746;2022-12-29T05:01:49;2.83;;;2.63;;
4766;SDS011;2397;53.576;9.746;2022-12-29T05:04:16;2.93;;;2.73;;
4766;SDS011;2397;53.576;9.746;2022-12-29T05:06:42;3.33;;;2.80;;
4766;SDS011;2397;53.576;9.746;2022-12-29T05:09:09;2.90;;;2.70;;
4766;SDS011;2397;53.576;9.746;2022-12-29T05:11:35;3.20;;;3.00;;
4766;SDS011;2397;53.576;9.746;2022-12-29T05:14:01;3.13;;;2.83;;
4766;SDS011;2397;53.576;9.746;2022-12-29T05:16:28;2.83;;;2.63;;
4766;SDS011;2397;53.576;9.746;2022-12-29T05:18:54;2.90;;;2.47;;
4766;SDS011;2397;53.576;9.746;2022-12-29T05:21:21;2.80;;;2.70;;
4766;SDS011;2397;53.576;9.746;2022-12-29T05:23:47;3.20;;;3.00;;
4766;SDS011;2397;53.576;9.746;2022-12-29T05:26:14;3.67;;;3.37;;
4766;SDS011;2397;53.576;9.746;2022-12-29T05:28:40;3.27;;;3.07;;
4766;SDS011;2397;53.576;9.746;2022-12-29T05:31:07;3.43;;;3.23;;
4766;SDS011;2397;53.576;9.746;2022-12-29T05:33:33;4.23;;;3.83;;
4766;SDS011;2397;53.576;9.746;2022-12-29T05:36:03;4.30;;;3.60;;
4766;SDS011;2397;53.576;9.746;2022-12-29T05:38:33;3.87;;;3.57;;
4766;SDS011;2397;53.576;9.746;2022-12-29T05:41:00;3.73;;;3.53;;
4766;SDS011;2397;53.576;9.746;2022-12-29T05:43:27;3.90;;;3.70;;
4766;SDS011;2397;53.576;9.746;2022-12-29T05:45:53;3.70;;;3.40;;
4766;SDS011;2397;53.576;9.746;2022-12-29T05:48:20;3.40;;;3.20;;
4766;SDS011;2397;53.576;9.746;2022-12-29T05:50:50;3.70;;;3.50;;
4766;SDS011;2397;53.576;9.746;2022-12-29T05:53:17;3.73;;;3.30;;
4766;SDS011;2397;53.576;9.746;2022-12-29T05:55:44;6.10;;;3.20;;
4766;SDS011;2397;53.576;9.746;2022-12-29T05:58:15;3.33;;;2.90;;
4766;SDS011;2397;53.576;9.746;2022-12-29T06:00:42;3.43;;;3.13;;
4766;SDS011;2397;53.576;9.746;2022-12-29T06:03:09;3.77;;;3.17;;
4766;SDS011;2397;53.576;9.746;2022-12-29T06:05:36;3.20;;;3.00;;
4766;SDS011;2397;53.576;9.746;2022-12-29T06:08:02;2.90;;;2.77;;
4766;SDS011;2397;53.576;9.746;2022-12-29T06:10:29;3.30;;;2.90;;
4766;SDS011;2397;53.576;9.746;2022-12-29T06:12:55;2.97;;;2.77;;
4766;SDS011;2397;53.576;9.746;2022-12-29T06:15:22;2.90;;;2.77;;
4766;SDS011;2397;53.576;9.746;2022-12-29T06:17:48;2.90;;;2.70;;
4766;SDS011;2397;53.576;9.746;2022-12-29T06:20:14;2.93;;;2.73;;
4766;SDS011;2397;53.576;9.746;2022-12-29T06:22:42;3.00;;;2.80;;
4766;SDS011;2397;53.576;9.746;2022-12-29T06:25:09;2.53;;;2.43;;
4766;SDS011;2397;53.576;9.746;2022-12-29T06:27:35;2.47;;;2.30;;
4766;SDS011;2397;53.576;9.746;2022-12-29T06:30:02;2.40;;;2.20;;
4766;SDS011;2397;53.576;9.746;2022-12-29T06:32:29;2.50;;;2.40;;
4766;SDS011;2397;53.576;9.746;2022-12-29T06:34:55;2.50;;;2.40;;
4766;SDS011;2397;53.576;9.746;2022-12-29T06:37:22;2.50;;;2.30;;
4766;SDS011;2397;53.576;9.746;2022-12-29T06:39:48;2.70;;;2.50;;
4766;SDS011;2397;53.576;9.746;2022-12-29T06:42:14;3.57;;;2.60;;
4766;SDS011;2397;53.576;9.746;2022-12-29T06:44:41;2.47;;;2.37;;
4766;SDS011;2397;53.576;9.746;2022-12-29T06:47:07;2.47;;;2.37;;
4766;SDS011;2397;53.576;9.746;2022-12-29T06:49:34;2.70;;;2.47;;
4766;SDS011;2397;53.576;9.746;2022-12-29T06:52:00;2.80;;;2.60;;
4766;SDS011;2397;53.576;9.746;2022-12-29T06:54:37;3.40;;;2.27;;
4766;SDS011;2397;53.576;9.746;2022-12-29T06:57:04;3.17;;;2.50;;
4766;SDS011;2397;53.576;9.746;2022-12-29T06:59:30;3.03;;;2.37;;
4766;SDS011;2397;53.576;9.746;2022-12-29T07:01:57;2.60;;;2.50;;
4766;SDS011;2397;53.576;9.746;2022-12-29T07:04:23;2.50;;;2.40;;
4766;SDS011;2397;53.576;9.746;2022-12-29T07:06:50;3.20;;;3.00;;
4766;SDS011;2397;53.576;9.746;2022-12-29T07:09:16;3.00;;;2.80;;
4766;SDS011;2397;53.576;9.746;2022-12-29T07:11:43;4.63;;;3.03;;
4766;SDS011;2397;53.576;9.746;2022-12-29T07:14:10;3.03;;;2.83;;
4766;SDS011;2397;53.576;9.746;2022-12-29T07:16:37;3.53;;;2.50;;
4766;SDS011;2397;53.576;9.746;2022-12-29T07:19:04;2.57;;;2.47;;
4766;SDS011;2397;53.576;9.746;2022-12-29T07:21:30;3.10;;;2.90;;
4766;SDS011;2397;53.576;9.746;2022-12-29T07:23:57;2.50;;;2.30;;
4766;SDS011;2397;53.576;9.746;2022-12-29T07:26:23;3.53;;;2.50;;
4766;SDS011;2397;53.576;9.746;2022-12-29T07:28:50;2.40;;;2.30;;
4766;SDS011;2397;53.576;9.746;2022-12-29T07:31:18;2.53;;;2.10;;
4766;SDS011;2397;53.576;9.746;2022-12-29T07:33:46;4.30;;;2.20;;
4766;SDS011;2397;53.576;9.746;2022-12-29T07:36:14;2.60;;;2.50;;
4766;SDS011;2397;53.576;9.746;2022-12-29T07:38:42;2.57;;;2.37;;
4766;SDS011;2397;53.576;9.746;2022-12-29T07:41:09;6.03;;;2.50;;
4766;SDS011;2397;53.576;9.746;2022-12-29T07:43:35;3.13;;;2.83;;
4766;SDS011;2397;53.576;9.746;2022-12-29T07:46:02;3.00;;;2.70;;
4766;SDS011;2397;53.576;9.746;2022-12-29T07:48:28;2.27;;;2.07;;
4766;SDS011;2397;53.576;9.746;2022-12-29T07:50:55;2.70;;;2.50;;
4766;SDS011;2397;53.576;9.746;2022-12-29T07:53:22;4.80;;;2.47;;
4766;SDS011;2397;53.576;9.746;2022-12-29T07:55:49;2.63;;;2.33;;
4766;SDS011;2397;53.576;9.746;2022-12-29T07:58:15;2.60;;;2.40;;
4766;SDS011;2397;53.576;9.746;2022-12-29T08:00:41;2.33;;;2.00;;
4766;SDS011;2397;53.576;9.746;2022-12-29T08:03:08;2.17;;;1.97;;
4766;SDS011;2397;53.576;9.746;2022-12-29T08:05:34;5.43;;;2.47;;
4766;SDS011;2397;53.576;9.746;2022-12-29T08:08:00;2.53;;;2.33;;
4766;SDS011;2397;53.576;9.746;2022-12-29T08:10:27;2.43;;;2.23;;
4766;SDS011;2397;53.576;9.746;2022-12-29T08:12:53;3.70;;;1.90;;
4766;SDS011;2397;53.576;9.746;2022-12-29T08:15:20;1.77;;;1.67;;
4766;SDS011;2397;53.576;9.746;2022-12-29T08:17:52;2.80;;;1.70;;
4766;SDS011;2397;53.576;9.746;2022-12-29T08:20:18;1.40;;;1.30;;
4766;SDS011;2397;53.576;9.746;2022-12-29T08:22:44;3.30;;;2.10;;
4766;SDS011;2397;53.576;9.746;2022-12-29T08:25:11;4.77;;;1.70;;
4766;SDS011;2397;53.576;9.746;2022-12-29T08:27:37;1.97;;;1.87;;
4766;SDS011;2397;53.576;9.746;2022-12-29T08:30:04;2.07;;;1.87;;
4766;SDS011;2397;53.576;9.746;2022-12-29T08:32:31;2.90;;;2.00;;
4766;SDS011;2397;53.576;9.746;2022-12-29T08:34:58;2.17;;;1.97;;
4766;SDS011;2397;53.576;9.746;2022-12-29T08:37:24;1.80;;;1.70;;
4766;SDS011;2397;53.576;9.746;2022-12-29T08:39:56;3.17;;;2.00;;
4766;SDS011;2397;53.576;9.746;2022-12-29T08:42:23;2.60;;;2.17;;
4766;SDS011;2397;53.576;9.746;2022-12-29T08:44:51;2.20;;;2.00;;
4766;SDS011;2397;53.576;9.746;2022-12-29T08:47:17;1.90;;;1.80;;
4766;SDS011;2397;53.576;9.746;2022-12-29T08:49:44;2.33;;;2.13;;
4766;SDS011;2397;53.576;9.746;2022-12-29T08:52:10;1.97;;;1.87;;
4766;SDS011;2397;53.576;9.746;2022-12-29T08:54:36;1.90;;;1.80;;
4766;SDS011;2397;53.576;9.746;2022-12-29T08:57:03;1.70;;;1.60;;
4766;SDS011;2397;53.576;9.746;2022-12-29T08:59:29;1.60;;;1.40;;
4766;SDS011;2397;53.576;9.746;2022-12-29T09:01:56;2.30;;;1.73;;
4766;SDS011;2397;53.576;9.746;2022-12-29T09:04:22;4.73;;;1.63;;
4766;SDS011;2397;53.576;9.746;2022-12-29T09:06:50;3.33;;;1.70;;
4766;SDS011;2397;53.576;9.746;2022-12-29T09:09:16;5.33;;;1.60;;
4766;SDS011;2397;53.576;9.746;2022-12-29T09:11:43;1.40;;;1.30;;
4766;SDS011;2397;53.576;9.746;2022-12-29T09:14:10;2.20;;;1.70;;
4766;SDS011;2397;53.576;9.746;2022-12-29T09:16:38;2.47;;;1.70;;
4766;SDS011;2397;53.576;9.746;2022-12-29T09:19:05;1.73;;;1.50;;
4766;SDS011;2397;53.576;9.746;2022-12-29T09:21:32;4.37;;;1.70;;
4766;SDS011;2397;53.576;9.746;2022-12-29T09:23:58;3.87;;;1.50;;
4766;SDS011;2397;53.576;9.746;2022-12-29T09:26:25;1.73;;;1.60;;
4766;SDS011;2397;53.576;9.746;2022-12-29T09:28:51;3.67;;;1.60;;
4766;SDS011;2397;53.576;9.746;2022-12-29T09:31:18;3.20;;;2.10;;
4766;SDS011;2397;53.576;9.746;2022-12-29T09:33:44;2.10;;;1.60;;
4766;SDS011;2397;53.576;9.746;2022-12-29T09:36:11;6.73;;;1.80;;
4766;SDS011;2397;53.576;9.746;2022-12-29T09:38:37;4.40;;;1.40;;
4766;SDS011;2397;53.576;9.746;2022-12-29T09:41:14;4.20;;;1.63;;
4766;SDS011;2397;53.576;9.746;2022-12-29T09:46:43;3.50;;;2.33;;
4766;SDS011;2397;53.576;9.746;2022-12-29T09:51:46;4.30;;;1.70;;
4766;SDS011;2397;53.576;9.746;2022-12-29T09:54:26;3.30;;;1.40;;
4766;SDS011;2397;53.576;9.746;2022-12-29T09:57:02;3.97;;;1.50;;
4766;SDS011;2397;53.576;9.746;2022-12-29T09:59:38;7.73;;;1.70;;
4766;SDS011;2397;53.576;9.746;2022-12-29T10:04:55;2.10;;;1.90;;
4766;SDS011;2397;53.576;9.746;2022-12-29T10:13:03;5.27;;;2.00;;
4766;SDS011;2397;53.576;9.746;2022-12-29T10:24:35;5.37;;;1.60;;
4766;SDS011;2397;53.576;9.746;2022-12-29T10:27:09;6.53;;;2.03;;
4766;SDS011;2397;53.576;9.746;2022-12-29T10:29:48;3.60;;;1.23;;
4766;SDS011;2397;53.576;9.746;2022-12-29T10:32:27;6.90;;;1.73;;
4766;SDS011;2397;53.576;9.746;2022-12-29T10:35:00;3.77;;;1.80;;
4766;SDS011;2397;53.576;9.746;2022-12-29T10:37:47;6.20;;;2.03;;
4766;SDS011;2397;53.576;9.746;2022-12-29T10:40:25;7.57;;;2.30;;
4766;SDS011;2397;53.576;9.746;2022-12-29T10:42:57;2.40;;;1.57;;
4766;SDS011;2397;53.576;9.746;2022-12-29T10:45:30;3.00;;;1.90;;
4766;SDS011;2397;53.576;9.746;2022-12-29T10:50:27;5.43;;;2.73;;
4766;SDS011;2397;53.576;9.746;2022-12-29T10:52:56;7.43;;;2.17;;
4766;SDS011;2397;53.576;9.746;2022-12-29T10:55:27;7.23;;;1.43;;
4766;SDS011;2397;53.576;9.746;2022-12-29T10:57:59;4.87;;;1.93;;
4766;SDS011;2397;53.576;9.746;2022-12-29T11:00:33;4.10;;;1.70;;
4766;SDS011;2397;53.576;9.746;2022-12-29T11:05:56;6.20;;;1.97;;
4766;SDS011;2397;53.576;9.746;2022-12-29T11:08:31;6.20;;;1.87;;
4766;SDS011;2397;53.576;9.746;2022-12-29T11:11:03;4.87;;;1.87;;
4766;SDS011;2397;53.576;9.746;2022-12-29T11:13:36;2.83;;;1.77;;
4766;SDS011;2397;53.576;9.746;2022-12-29T11:16:13;5.33;;;1.87;;
4766;SDS011;2397;53.576;9.746;2022-12-29T11:18:40;5.83;;;2.27;;
4766;SDS011;2397;53.576;9.746;2022-12-29T11:21:26;3.23;;;1.50;;
4766;SDS011;2397;53.576;9.746;2022-12-29T11:23:57;2.00;;;1.70;;
4766;SDS011;2397;53.576;9.746;2022-12-29T11:26:26;3.10;;;1.53;;
4766;SDS011;2397;53.576;9.746;2022-12-29T11:31:53;3.37;;;1.87;;
4766;SDS011;2397;53.576;9.746;2022-12-29T11:34:24;2.27;;;1.40;;
4766;SDS011;2397;53.576;9.746;2022-12-29T11:37:13;4.00;;;1.37;;
4766;SDS011;2397;53.576;9.746;2022-12-29T11:42:12;3.97;;;1.53;;
4766;SDS011;2397;53.576;9.746;2022-12-29T11:44:43;4.33;;;1.10;;
4766;SDS011;2397;53.576;9.746;2022-12-29T11:47:14;1.70;;;1.10;;
4766;SDS011;2397;53.576;9.746;2022-12-29T11:49:50;4.00;;;1.30;;
4766;SDS011;2397;53.576;9.746;2022-12-29T11:52:25;4.00;;;1.20;;
4766;SDS011;2397;53.576;9.746;2022-12-29T11:54:54;3.40;;;1.10;;
4766;SDS011;2397;53.576;9.746;2022-12-29T11:57:22;5.57;;;1.40;;
4766;SDS011;2397;53.576;9.746;2022-12-29T11:59:54;3.10;;;1.60;;
4766;SDS011;2397;53.576;9.746;2022-12-29T12:02:26;4.33;;;1.40;;
4766;SDS011;2397;53.576;9.746;2022-12-29T12:05:13;5.03;;;2.50;;
4766;SDS011;2397;53.576;9.746;2022-12-29T12:07:47;5.87;;;1.80;;
4766;SDS011;2397;53.576;9.746;2022-12-29T12:10:34;10.07;;;1.93;;
4766;SDS011;2397;53.576;9.746;2022-12-29T12:13:15;2.33;;;1.77;;
4766;SDS011;2397;53.576;9.746;2022-12-29T12:18:52;4.87;;;1.53;;
4766;SDS011;2397;53.576;9.746;2022-12-29T12:21:30;5.50;;;1.53;;
4766;SDS011;2397;53.576;9.746;2022-12-29T12:24:27;7.60;;;1.80;;
4766;SDS011;2397;53.576;9.746;2022-12-29T12:27:12;6.40;;;1.97;;
4766;SDS011;2397;53.576;9.746;2022-12-29T12:35:39;5.83;;;2.70;;
4766;SDS011;2397;53.576;9.746;2022-12-29T12:38:41;7.07;;;1.60;;
4766;SDS011;2397;53.576;9.746;2022-12-29T12:41:24;6.63;;;2.00;;
4766;SDS011;2397;53.576;9.746;2022-12-29T12:44:18;3.63;;;1.30;;
4766;SDS011;2397;53.576;9.746;2022-12-29T12:47:23;5.60;;;3.50;;
4766;SDS011;2397;53.576;9.746;2022-12-29T12:52:50;5.33;;;1.87;;
4766;SDS011;2397;53.576;9.746;2022-12-29T13:01:16;7.47;;;2.00;;
4766;SDS011;2397;53.576;9.746;2022-12-29T13:07:01;2.33;;;1.40;;
4766;SDS011;2397;53.576;9.746;2022-12-29T13:12:44;2.47;;;1.80;;
4766;SDS011;2397;53.576;9.746;2022-12-29T13:15:27;5.23;;;2.30;;
4766;SDS011;2397;53.576;9.746;2022-12-29T13:18:13;3.27;;;1.60;;
4766;SDS011;2397;53.576;9.746;2022-12-29T13:21:03;4.47;;;2.20;;
4766;SDS011;2397;53.576;9.746;2022-12-29T13:23:34;4.87;;;2.07;;
4766;SDS011;2397;53.576;9.746;2022-12-29T13:26:18;7.60;;;2.00;;
4766;SDS011;2397;53.576;9.746;2022-12-29T13:31:31;6.50;;;2.07;;
4766;SDS011;2397;53.576;9.746;2022-12-29T13:34:10;4.80;;;1.97;;
4766;SDS011;2397;53.576;9.746;2022-12-29T13:36:54;3.07;;;1.80;;
4766;SDS011;2397;53.576;9.746;2022-12-29T13:39:43;9.40;;;1.70;;
4766;SDS011;2397;53.576;9.746;2022-12-29T13:42:15;8.00;;;1.80;;
4766;SDS011;2397;53.576;9.746;2022-12-29T13:44:45;6.30;;;2.10;;
4766;SDS011;2397;53.576;9.746;2022-12-29T13:47:20;7.37;;;1.83;;
4766;SDS011;2397;53.576;9.746;2022-12-29T13:50:08;4.83;;;2.30;;
4766;SDS011;2397;53.576;9.746;2022-12-29T13:52:44;4.03;;;1.80;;
4766;SDS011;2397;53.576;9.746;2022-12-29T13:58:19;3.90;;;1.27;;
4766;SDS011;2397;53.576;9.746;2022-12-29T14:01:14;2.10;;;1.07;;
4766;SDS011;2397;53.576;9.746;2022-12-29T14:03:50;3.73;;;1.10;;
4766;SDS011;2397;53.576;9.746;2022-12-29T14:09:00;5.47;;;1.63;;
4766;SDS011;2397;53.576;9.746;2022-12-29T14:11:32;2.70;;;1.23;;
4766;SDS011;2397;53.576;9.746;2022-12-29T14:14:21;8.43;;;2.00;;
4766;SDS011;2397;53.576;9.746;2022-12-29T14:16:54;10.20;;;2.10;;
4766;SDS011;2397;53.576;9.746;2022-12-29T14:19:22;3.80;;;1.60;;
4766;SDS011;2397;53.576;9.746;2022-12-29T14:21:53;5.63;;;1.43;;
4766;SDS011;2397;53.576;9.746;2022-12-29T14:24:27;3.10;;;1.30;;
4766;SDS011;2397;53.576;9.746;2022-12-29T14:35:00;4.73;;;1.60;;
4766;SDS011;2397;53.576;9.746;2022-12-29T14:37:46;4.40;;;1.90;;
4766;SDS011;2397;53.576;9.746;2022-12-29T14:42:55;5.07;;;2.20;;
4766;SDS011;2397;53.576;9.746;2022-12-29T14:45:26;6.83;;;1.73;;
4766;SDS011;2397;53.576;9.746;2022-12-29T14:47:55;3.63;;;1.47;;
4766;SDS011;2397;53.576;9.746;2022-12-29T14:50:23;3.30;;;2.87;;
4766;SDS011;2397;53.576;9.746;2022-12-29T14:55:38;3.60;;;2.20;;
4766;SDS011;2397;53.576;9.746;2022-12-29T14:58:26;5.90;;;2.07;;
4766;SDS011;2397;53.576;9.746;2022-12-29T15:04:21;3.40;;;1.60;;
4766;SDS011;2397;53.576;9.746;2022-12-29T15:06:51;4.80;;;1.93;;
4766;SDS011;2397;53.576;9.746;2022-12-29T15:09:28;7.23;;;2.33;;
4766;SDS011;2397;53.576;9.746;2022-12-29T15:12:11;10.30;;;2.50;;
4766;SDS011;2397;53.576;9.746;2022-12-29T15:14:53;2.20;;;1.30;;
4766;SDS011;2397;53.576;9.746;2022-12-29T15:17:29;3.10;;;1.87;;
4766;SDS011;2397;53.576;9.746;2022-12-29T15:20:01;8.07;;;2.00;;
4766;SDS011;2397;53.576;9.746;2022-12-29T15:22:44;7.40;;;2.30;;
4766;SDS011;2397;53.576;9.746;2022-12-29T15:25:17;9.20;;;2.03;;
4766;SDS011;2397;53.576;9.746;2022-12-29T15:27:51;6.40;;;2.10;;
4766;SDS011;2397;53.576;9.746;2022-12-29T15:30:19;6.63;;;1.80;;
4766;SDS011;2397;53.576;9.746;2022-12-29T15:32:46;5.57;;;1.73;;
4766;SDS011;2397;53.576;9.746;2022-12-29T15:38:13;3.17;;;1.73;;
4766;SDS011;2397;53.576;9.746;2022-12-29T15:40:45;2.63;;;1.60;;
4766;SDS011;2397;53.576;9.746;2022-12-29T15:43:16;9.07;;;2.30;;
4766;SDS011;2397;53.576;9.746;2022-12-29T15:46:11;4.80;;;1.80;;
4766;SDS011;2397;53.576;9.746;2022-12-29T15:48:38;2.67;;;2.00;;
4766;SDS011;2397;53.576;9.746;2022-12-29T15:53:56;5.07;;;2.30;;
4766;SDS011;2397;53.576;9.746;2022-12-29T15:56:24;7.43;;;1.90;;
4766;SDS011;2397;53.576;9.746;2022-12-29T15:58:55;1.90;;;1.50;;
4766;SDS011;2397;53.576;9.746;2022-12-29T16:01:34;5.20;;;2.30;;
4766;SDS011;2397;53.576;9.746;2022-12-29T16:04:06;5.97;;;2.10;;
4766;SDS011;2397;53.576;9.746;2022-12-29T16:06:35;11.50;;;2.30;;
4766;SDS011;2397;53.576;9.746;2022-12-29T16:09:14;4.50;;;1.73;;
4766;SDS011;2397;53.576;9.746;2022-12-29T16:11:46;6.10;;;2.00;;
4766;SDS011;2397;53.576;9.746;2022-12-29T16:14:20;4.80;;;2.20;;
4766;SDS011;2397;53.576;9.746;2022-12-29T16:16:55;6.27;;;2.10;;
4766;SDS011;2397;53.576;9.746;2022-12-29T16:19:29;5.70;;;1.83;;
4766;SDS011;2397;53.576;9.746;2022-12-29T16:22:00;4.10;;;2.10;;
4766;SDS011;2397;53.576;9.746;2022-12-29T16:24:32;9.10;;;3.00;;
4766;SDS011;2397;53.576;9.746;2022-12-29T16:27:06;4.53;;;2.20;;
4766;SDS011;2397;53.576;9.746;2022-12-29T16:29:33;7.37;;;2.60;;
4766;SDS011;2397;53.576;9.746;2022-12-29T16:32:00;4.43;;;2.43;;
4766;SDS011;2397;53.576;9.746;2022-12-29T16:37:27;7.30;;;2.67;;
4766;SDS011;2397;53.576;9.746;2022-12-29T16:42:46;6.73;;;2.60;;
4766;SDS011;2397;53.576;9.746;2022-12-29T16:50:32;5.60;;;2.33;;
4766;SDS011;2397;53.576;9.746;2022-12-29T16:53:01;3.97;;;2.00;;
4766;SDS011;2397;53.576;9.746;2022-12-29T16:55:29;8.50;;;2.50;;
4766;SDS011;2397;53.576;9.746;2022-12-29T16:57:55;4.17;;;3.00;;
4766;SDS011;2397;53.576;9.746;2022-12-29T17:00:25;6.20;;;2.33;;
4766;SDS011;2397;53.576;9.746;2022-12-29T17:02:55;11.60;;;2.70;;
4766;SDS011;2397;53.576;9.746;2022-12-29T17:05:24;6.03;;;2.20;;
4766;SDS011;2397;53.576;9.746;2022-12-29T17:07:51;6.40;;;2.50;;
4766;SDS011;2397;53.576;9.746;2022-12-29T17:10:18;6.90;;;2.77;;
4766;SDS011;2397;53.576;9.746;2022-12-29T17:12:45;5.00;;;2.40;;
4766;SDS011;2397;53.576;9.746;2022-12-29T17:15:15;6.27;;;2.53;;
4766;SDS011;2397;53.576;9.746;2022-12-29T17:17:47;7.50;;;2.80;;
4766;SDS011;2397;53.576;9.746;2022-12-29T17:20:21;2.97;;;2.70;;
4766;SDS011;2397;53.576;9.746;2022-12-29T17:22:50;5.83;;;2.30;;
4766;SDS011;2397;53.576;9.746;2022-12-29T17:25:21;5.23;;;2.23;;
4766;SDS011;2397;53.576;9.746;2022-12-29T17:27:53;14.53;;;4.90;;
4766;SDS011;2397;53.576;9.746;2022-12-29T17:30:24;4.90;;;2.40;;
4766;SDS011;2397;53.576;9.746;2022-12-29T17:32:58;4.30;;;2.50;;
4766;SDS011;2397;53.576;9.746;2022-12-29T17:35:27;6.10;;;2.50;;
4766;SDS011;2397;53.576;9.746;2022-12-29T17:37:54;9.73;;;3.10;;
4766;SDS011;2397;53.576;9.746;2022-12-29T17:40:21;10.20;;;2.87;;
4766;SDS011;2397;53.576;9.746;2022-12-29T17:42:53;9.23;;;2.83;;